createdAt,value
2018-12-12T00:05:04.420Z,6.50
2018-12-12T00:10:12.720Z,8.17
2018-12-12T00:15:19.363Z,7.60
2018-12-12T00:20:23.389Z,12.23
2018-12-12T00:25:27.492Z,11.00
2018-12-12T00:30:31.581Z,12.23
2018-12-12T00:35:35.684Z,11.93
2018-12-12T00:40:39.796Z,12.47
2018-12-12T00:45:43.913Z,11.80
2018-12-12T00:50:48.139Z,7.43
2018-12-12T00:55:52.317Z,2.87
2018-12-12T01:00:56.407Z,12.70
2018-12-12T01:06:00.498Z,10.17
2018-12-12T01:12:08.714Z,9.33
2018-12-12T01:17:12.967Z,13.37
2018-12-12T01:22:17.079Z,13.10
2018-12-12T01:27:21.169Z,10.00
2018-12-12T01:32:25.261Z,13.40
2018-12-12T01:37:29.051Z,8.20
2018-12-12T01:42:33.063Z,8.83
2018-12-12T01:47:36.834Z,9.13
2018-12-12T01:52:40.952Z,12.17
2018-12-12T01:57:45.043Z,11.10
2018-12-12T02:02:49.351Z,6.03
2018-12-12T02:07:53.658Z,13.13
2018-12-12T02:13:09.507Z,12.07
2018-12-12T02:18:13.612Z,10.33
2018-12-12T02:23:17.400Z,3.93
2018-12-12T02:28:21.171Z,3.67
2018-12-12T02:33:25.179Z,11.10
2018-12-12T02:38:29.277Z,9.53
2018-12-12T02:43:33.056Z,8.73
2018-12-12T02:48:37.116Z,6.87
2018-12-12T02:53:41.203Z,8.53
2018-12-12T02:58:44.982Z,10.17
2018-12-12T03:03:48.995Z,15.63
2018-12-12T03:08:53.087Z,13.80
2018-12-12T03:13:57.401Z,10.47
2018-12-12T03:19:01.674Z,13.07
2018-12-12T03:24:05.493Z,7.23
2018-12-12T03:29:09.487Z,12.97
2018-12-12T03:34:13.572Z,11.70
2018-12-12T03:39:17.798Z,16.60
2018-12-12T03:44:21.990Z,15.33
2018-12-12T03:49:25.782Z,12.00
2018-12-12T03:54:30.115Z,15.33
2018-12-12T03:59:34.213Z,11.93
2018-12-12T04:04:38.302Z,9.90
2018-12-12T04:09:42.096Z,13.73
2018-12-12T04:14:46.127Z,18.77
2018-12-12T04:19:50.308Z,15.83
2018-12-12T04:24:54.548Z,17.30
2018-12-12T04:29:58.651Z,16.27
2018-12-12T04:35:02.850Z,10.47
2018-12-12T04:40:07.388Z,20.23
2018-12-12T04:45:11.511Z,18.57
2018-12-12T04:50:15.612Z,5.07
2018-12-12T04:55:19.720Z,20.47
2018-12-12T05:00:23.843Z,12.10
2018-12-12T05:05:28.539Z,14.63
2018-12-12T05:10:32.500Z,15.07
2018-12-12T05:15:36.485Z,12.67
2018-12-12T05:20:40.539Z,12.50
2018-12-12T05:25:44.327Z,6.57
2018-12-12T05:30:48.938Z,15.90
2018-12-12T05:35:52.735Z,11.13
2018-12-12T05:40:56.774Z,14.47
2018-12-12T05:46:01.302Z,20.30
2018-12-12T05:51:05.108Z,17.73
2018-12-12T05:56:14.124Z,15.43
2018-12-12T06:01:15.264Z,11.30
2018-12-12T06:06:19.411Z,12.87
2018-12-12T06:11:23.542Z,14.50
2018-12-12T06:16:29.170Z,18.53
2018-12-12T06:21:33.508Z,18.20
2018-12-12T06:26:37.761Z,17.13
2018-12-12T06:31:41.993Z,23.07
2018-12-12T06:36:46.092Z,21.27
2018-12-12T06:41:50.208Z,17.17
2018-12-12T06:46:54.320Z,22.67
2018-12-12T06:51:58.421Z,22.33
2018-12-12T06:57:02.552Z,20.90
2018-12-12T07:02:06.664Z,19.40
2018-12-12T07:07:11.110Z,18.73
2018-12-12T07:12:15.244Z,18.30
2018-12-12T07:17:19.347Z,17.23
2018-12-12T07:22:23.446Z,15.70
2018-12-12T07:27:27.560Z,17.37
2018-12-12T07:32:31.679Z,16.90
2018-12-12T07:37:35.896Z,20.00
2018-12-12T07:42:40.033Z,20.97
2018-12-12T07:47:49.916Z,16.50
2018-12-12T07:53:11.752Z,16.43
2018-12-12T07:58:15.911Z,16.20
2018-12-12T08:03:20.031Z,17.27
2018-12-12T08:08:24.333Z,16.67
2018-12-12T08:13:28.771Z,16.60
2018-12-12T08:18:32.907Z,36.90
2018-12-12T08:23:39.028Z,27.43
2018-12-12T08:28:45.925Z,14.50
2018-12-12T08:33:50.013Z,13.30
2018-12-12T08:38:55.513Z,17.33
2018-12-12T08:44:02.643Z,15.67
2018-12-12T08:49:08.632Z,11.37
2018-12-12T08:54:14.416Z,12.30
2018-12-12T08:59:19.691Z,11.50
2018-12-12T09:04:26.295Z,14.67
2018-12-12T09:09:32.619Z,13.20
2018-12-12T09:14:40.202Z,11.30
2018-12-12T09:19:45.688Z,11.27
2018-12-12T09:24:52.347Z,12.40
2018-12-12T09:29:58.480Z,8.00
2018-12-12T09:35:06.827Z,5.63
2018-12-12T09:40:13.438Z,5.87
2018-12-12T09:45:21.843Z,6.97
2018-12-12T09:50:28.363Z,6.07
2018-12-12T09:55:36.397Z,6.43
2018-12-12T10:00:40.988Z,4.93
2018-12-12T10:05:45.308Z,5.30
2018-12-12T10:10:49.525Z,4.60
2018-12-12T10:16:00.502Z,4.70
2018-12-12T10:21:04.857Z,4.33
2018-12-12T10:26:09.269Z,3.87
2018-12-12T10:31:13.619Z,6.50
2018-12-12T10:36:17.720Z,4.87
2018-12-12T10:41:22.075Z,3.43
2018-12-12T10:46:26.441Z,5.47
2018-12-12T10:51:30.740Z,4.93
2018-12-12T10:56:35.167Z,3.70
2018-12-12T11:01:44.922Z,4.80
2018-12-12T11:06:49.287Z,4.63
2018-12-12T11:11:53.536Z,5.03
2018-12-12T11:16:57.651Z,6.07
2018-12-12T11:22:01.903Z,4.60
2018-12-12T11:27:06.175Z,5.20
2018-12-12T11:32:10.276Z,5.87
2018-12-12T11:37:14.380Z,4.50
2018-12-12T11:42:18.472Z,4.33
2018-12-12T11:47:22.587Z,4.33
2018-12-12T11:52:26.682Z,3.70
2018-12-12T11:57:31.534Z,4.10
2018-12-12T12:02:35.823Z,4.93
2018-12-12T12:07:39.895Z,4.23
2018-12-12T12:12:44.033Z,5.10
2018-12-12T12:17:50.138Z,6.50
2018-12-12T12:22:53.923Z,4.97
2018-12-12T12:27:58.538Z,4.83
2018-12-12T12:33:02.343Z,3.60
2018-12-12T12:38:06.269Z,4.10
2018-12-12T12:43:10.275Z,4.70
2018-12-12T12:48:14.086Z,3.37
2018-12-12T12:53:17.802Z,3.83
2018-12-12T12:58:21.498Z,4.57
2018-12-12T13:03:25.426Z,3.10
2018-12-12T13:08:29.366Z,3.57
2018-12-12T13:13:33.165Z,5.17
2018-12-12T13:18:36.932Z,5.13
2018-12-12T13:23:40.963Z,3.73
2018-12-12T13:28:45.006Z,6.33
2018-12-12T13:33:48.900Z,5.87
2018-12-12T13:38:52.592Z,4.70
2018-12-12T13:43:56.617Z,4.23
2018-12-12T13:49:00.312Z,7.70
2018-12-12T13:54:04.523Z,5.83
2018-12-12T13:59:08.256Z,5.10
2018-12-12T14:04:12.619Z,5.73
2018-12-12T14:09:16.567Z,6.67
2018-12-12T14:14:20.504Z,9.10
2018-12-12T14:19:24.501Z,7.07
2018-12-12T14:24:28.406Z,7.80
2018-12-12T14:29:32.386Z,5.07
2018-12-12T14:34:36.116Z,5.60
2018-12-12T14:39:39.882Z,7.23
2018-12-12T14:44:43.891Z,7.33
2018-12-12T14:49:48.098Z,12.30
2018-12-12T14:54:52.149Z,6.90
2018-12-12T14:59:55.861Z,6.60
2018-12-12T15:04:59.558Z,5.10
2018-12-12T15:10:03.920Z,7.10
2018-12-12T15:15:08.506Z,6.10
2018-12-12T15:20:12.524Z,5.67
2018-12-12T15:25:16.915Z,6.03
2018-12-12T15:30:21.209Z,4.97
2018-12-12T15:35:25.423Z,6.27
2018-12-12T15:40:29.171Z,6.07
2018-12-12T15:45:32.885Z,6.43
2018-12-12T15:50:36.584Z,5.37
2018-12-12T15:55:40.730Z,5.83
2018-12-12T16:00:45.466Z,6.60
2018-12-12T16:05:51.066Z,7.60
2018-12-12T16:10:55.316Z,9.60
2018-12-12T16:15:59.117Z,8.57
2018-12-12T16:21:03.415Z,5.83
2018-12-12T16:26:07.754Z,5.70
2018-12-12T16:31:11.950Z,6.20
2018-12-12T16:36:17.137Z,5.40
2018-12-12T16:41:21.471Z,6.90
2018-12-12T16:46:25.417Z,7.47
2018-12-12T16:51:29.751Z,5.63
2018-12-12T16:56:34.032Z,5.97
2018-12-12T17:01:39.055Z,5.60
2018-12-12T17:06:42.835Z,5.00
2018-12-12T17:11:48.346Z,6.37
2018-12-12T17:16:52.507Z,6.60
2018-12-12T17:21:57.152Z,5.07
2018-12-12T17:27:02.091Z,6.30
2018-12-12T17:32:07.003Z,8.33
2018-12-12T17:37:10.681Z,8.70
2018-12-12T17:42:15.576Z,8.53
2018-12-12T17:47:20.739Z,9.83
2018-12-12T17:52:24.886Z,14.27
2018-12-12T17:57:30.873Z,16.77
2018-12-12T18:02:34.906Z,14.53
2018-12-12T18:07:44.630Z,12.93
2018-12-12T18:12:49.198Z,9.17
2018-12-12T18:17:55.196Z,5.30
2018-12-12T18:22:59.045Z,5.57
2018-12-12T18:28:04.812Z,7.63
2018-12-12T18:33:09.115Z,7.60
2018-12-12T18:38:34.726Z,8.87
2018-12-12T18:43:39.148Z,7.33
2018-12-12T18:48:43.002Z,6.17
2018-12-12T18:53:49.059Z,5.20
2018-12-12T18:58:54.866Z,4.93
2018-12-12T19:03:58.895Z,5.33
2018-12-12T19:09:03.763Z,6.93
2018-12-12T19:14:09.952Z,5.63
2018-12-12T19:19:14.154Z,6.93
2018-12-12T19:24:18.855Z,6.73
2018-12-12T19:29:23.441Z,7.87
2018-12-12T19:34:28.112Z,7.50
2018-12-12T19:39:31.802Z,6.07
2018-12-12T19:44:35.816Z,7.63
2018-12-12T19:49:40.447Z,7.50
2018-12-12T19:54:44.726Z,7.57
2018-12-12T19:59:49.329Z,6.67
2018-12-12T20:04:53.383Z,6.63
2018-12-12T20:09:58.037Z,7.13
2018-12-12T20:15:02.355Z,8.27
2018-12-12T20:20:06.636Z,8.20
2018-12-12T20:25:10.485Z,6.23
2018-12-12T20:30:14.671Z,6.27
2018-12-12T20:35:19.199Z,15.17
2018-12-12T20:40:23.906Z,10.07
2018-12-12T20:45:29.079Z,8.83
2018-12-12T20:50:33.975Z,12.40
2018-12-12T20:55:38.387Z,11.23
2018-12-12T21:00:44.178Z,11.37
2018-12-12T21:05:54.373Z,11.87
2018-12-12T21:10:57.751Z,11.30
2018-12-12T21:16:02.701Z,10.43
2018-12-12T21:21:07.063Z,10.60
2018-12-12T21:26:13.397Z,10.57
2018-12-12T21:31:17.469Z,6.93
2018-12-12T21:36:21.323Z,8.20
2018-12-12T21:41:26.411Z,8.63
2018-12-12T21:46:30.527Z,9.23
2018-12-12T21:51:34.587Z,8.63
2018-12-12T21:56:39.221Z,7.87
2018-12-12T22:01:43.397Z,7.43
2018-12-12T22:06:47.347Z,9.50
2018-12-12T22:11:51.395Z,7.83
2018-12-12T22:16:55.377Z,8.47
2018-12-12T22:22:00.491Z,12.60
2018-12-12T22:27:04.437Z,8.20
2018-12-12T22:32:08.703Z,11.27
2018-12-12T22:37:12.819Z,12.40
2018-12-12T22:42:16.522Z,7.43
2018-12-12T22:47:21.286Z,8.57
2018-12-12T22:52:25.488Z,9.83
2018-12-12T22:57:29.263Z,8.33
2018-12-12T23:02:34.977Z,8.67
2018-12-12T23:07:39.871Z,10.10
2018-12-12T23:12:43.767Z,11.07
2018-12-12T23:17:48.055Z,11.00
2018-12-12T23:22:52.171Z,8.37
2018-12-12T23:27:56.624Z,8.83
2018-12-12T23:33:01.254Z,9.77
2018-12-12T23:38:05.606Z,9.33
2018-12-12T23:43:09.481Z,10.13
2018-12-12T23:48:13.507Z,10.97
2018-12-12T23:53:17.607Z,7.23
2018-12-12T23:58:21.820Z,9.73
